sensor_id;sensor_type;location;lat;lon;timestamp;P1;durP1;ratioP1;P2;durP2;ratioP2
20336;SDS011;10326;53.660;10.200;2023-04-07T00:00:48;10.40;;;9.40;;
20336;SDS011;10326;53.660;10.200;2023-04-07T00:03:15;10.40;;;9.30;;
20336;SDS011;10326;53.660;10.200;2023-04-07T00:05:42;10.32;;;9.30;;
20336;SDS011;10326;53.660;10.200;2023-04-07T00:08:09;9.65;;;8.73;;
20336;SDS011;10326;53.660;10.200;2023-04-07T00:10:37;9.77;;;8.85;;
20336;SDS011;10326;53.660;10.200;2023-04-07T00:13:04;11.38;;;10.05;;
20336;SDS011;10326;53.660;10.200;2023-04-07T00:15:31;10.68;;;9.05;;
20336;SDS011;10326;53.660;10.200;2023-04-07T00:17:59;9.13;;;8.27;;
20336;SDS011;10326;53.660;10.200;2023-04-07T00:20:27;10.00;;;9.02;;
20336;SDS011;10326;53.660;10.200;2023-04-07T00:22:55;9.57;;;8.73;;
20336;SDS011;10326;53.660;10.200;2023-04-07T00:25:22;10.10;;;8.98;;
20336;SDS011;10326;53.660;10.200;2023-04-07T00:27:49;10.02;;;9.13;;
20336;SDS011;10326;53.660;10.200;2023-04-07T00:30:16;10.10;;;9.07;;
20336;SDS011;10326;53.660;10.200;2023-04-07T00:32:43;9.10;;;8.30;;
20336;SDS011;10326;53.660;10.200;2023-04-07T00:35:11;9.05;;;8.23;;
20336;SDS011;10326;53.660;10.200;2023-04-07T00:37:39;9.40;;;8.50;;
20336;SDS011;10326;53.660;10.200;2023-04-07T00:40:06;8.90;;;8.10;;
20336;SDS011;10326;53.660;10.200;2023-04-07T00:42:35;9.40;;;8.50;;
20336;SDS011;10326;53.660;10.200;2023-04-07T00:45:02;8.52;;;7.70;;
20336;SDS011;10326;53.660;10.200;2023-04-07T00:47:30;9.02;;;8.23;;
20336;SDS011;10326;53.660;10.200;2023-04-07T00:49:57;8.95;;;8.15;;
20336;SDS011;10326;53.660;10.200;2023-04-07T00:52:26;8.57;;;7.78;;
20336;SDS011;10326;53.660;10.200;2023-04-07T00:54:54;8.40;;;7.70;;
20336;SDS011;10326;53.660;10.200;2023-04-07T00:57:21;8.90;;;8.10;;
20336;SDS011;10326;53.660;10.200;2023-04-07T00:59:49;8.20;;;7.50;;
20336;SDS011;10326;53.660;10.200;2023-04-07T01:02:20;8.57;;;7.72;;
20336;SDS011;10326;53.660;10.200;2023-04-07T01:07:31;8.85;;;8.02;;
20336;SDS011;10326;53.660;10.200;2023-04-07T01:10:08;8.40;;;7.50;;
20336;SDS011;10326;53.660;10.200;2023-04-07T01:13:00;7.78;;;7.07;;
20336;SDS011;10326;53.660;10.200;2023-04-07T01:15:33;8.23;;;7.53;;
20336;SDS011;10326;53.660;10.200;2023-04-07T01:20:30;7.72;;;7.03;;
20336;SDS011;10326;53.660;10.200;2023-04-07T01:23:03;7.68;;;6.85;;
20336;SDS011;10326;53.660;10.200;2023-04-07T01:25:50;7.72;;;7.03;;
20336;SDS011;10326;53.660;10.200;2023-04-07T01:31:39;7.20;;;6.57;;
20336;SDS011;10326;53.660;10.200;2023-04-07T01:34:07;7.63;;;6.93;;
20336;SDS011;10326;53.660;10.200;2023-04-07T01:36:36;8.65;;;7.18;;
20336;SDS011;10326;53.660;10.200;2023-04-07T01:39:03;7.18;;;6.50;;
20336;SDS011;10326;53.660;10.200;2023-04-07T01:41:31;7.43;;;6.60;;
20336;SDS011;10326;53.660;10.200;2023-04-07T01:43:59;7.38;;;6.57;;
20336;SDS011;10326;53.660;10.200;2023-04-07T01:46:27;7.13;;;6.53;;
20336;SDS011;10326;53.660;10.200;2023-04-07T01:48:59;7.75;;;7.05;;
20336;SDS011;10326;53.660;10.200;2023-04-07T01:51:28;6.60;;;6.00;;
20336;SDS011;10326;53.660;10.200;2023-04-07T01:53:57;6.75;;;6.15;;
20336;SDS011;10326;53.660;10.200;2023-04-07T01:56:27;7.13;;;6.40;;
20336;SDS011;10326;53.660;10.200;2023-04-07T01:58:56;6.72;;;6.13;;
20336;SDS011;10326;53.660;10.200;2023-04-07T02:01:24;6.70;;;6.10;;
20336;SDS011;10326;53.660;10.200;2023-04-07T02:03:52;6.60;;;6.00;;
20336;SDS011;10326;53.660;10.200;2023-04-07T02:06:26;7.35;;;6.55;;
20336;SDS011;10326;53.660;10.200;2023-04-07T02:08:59;6.30;;;5.70;;
20336;SDS011;10326;53.660;10.200;2023-04-07T02:11:32;6.53;;;5.93;;
20336;SDS011;10326;53.660;10.200;2023-04-07T02:14:03;6.95;;;5.95;;
20336;SDS011;10326;53.660;10.200;2023-04-07T02:16:41;6.90;;;6.20;;
20336;SDS011;10326;53.660;10.200;2023-04-07T02:19:09;7.50;;;6.82;;
20336;SDS011;10326;53.660;10.200;2023-04-07T02:21:38;6.50;;;5.90;;
20336;SDS011;10326;53.660;10.200;2023-04-07T02:24:06;5.78;;;5.25;;
20336;SDS011;10326;53.660;10.200;2023-04-07T02:26:34;6.10;;;5.50;;
20336;SDS011;10326;53.660;10.200;2023-04-07T02:29:01;6.85;;;5.95;;
20336;SDS011;10326;53.660;10.200;2023-04-07T02:31:29;6.38;;;5.72;;
20336;SDS011;10326;53.660;10.200;2023-04-07T02:33:59;6.28;;;5.68;;
20336;SDS011;10326;53.660;10.200;2023-04-07T02:36:26;5.97;;;5.45;;
20336;SDS011;10326;53.660;10.200;2023-04-07T02:38:55;6.78;;;5.93;;
20336;SDS011;10326;53.660;10.200;2023-04-07T02:41:24;5.88;;;5.38;;
20336;SDS011;10326;53.660;10.200;2023-04-07T02:43:51;6.30;;;5.70;;
20336;SDS011;10326;53.660;10.200;2023-04-07T02:46:18;5.85;;;5.30;;
20336;SDS011;10326;53.660;10.200;2023-04-07T02:48:45;6.22;;;5.30;;
20336;SDS011;10326;53.660;10.200;2023-04-07T02:51:12;5.88;;;5.28;;
20336;SDS011;10326;53.660;10.200;2023-04-07T02:53:39;6.10;;;5.60;;
20336;SDS011;10326;53.660;10.200;2023-04-07T02:56:08;5.93;;;5.32;;
20336;SDS011;10326;53.660;10.200;2023-04-07T02:58:35;6.57;;;5.85;;
20336;SDS011;10326;53.660;10.200;2023-04-07T03:01:03;6.40;;;5.65;;
20336;SDS011;10326;53.660;10.200;2023-04-07T03:03:32;5.65;;;5.15;;
20336;SDS011;10326;53.660;10.200;2023-04-07T03:06:08;6.05;;;5.55;;
20336;SDS011;10326;53.660;10.200;2023-04-07T03:08:43;6.50;;;5.90;;
20336;SDS011;10326;53.660;10.200;2023-04-07T03:11:12;6.40;;;5.80;;
20336;SDS011;10326;53.660;10.200;2023-04-07T03:13:39;6.25;;;5.65;;
20336;SDS011;10326;53.660;10.200;2023-04-07T03:16:06;6.53;;;5.95;;
20336;SDS011;10326;53.660;10.200;2023-04-07T03:18:42;6.28;;;5.68;;
20336;SDS011;10326;53.660;10.200;2023-04-07T03:21:10;5.97;;;5.47;;
20336;SDS011;10326;53.660;10.200;2023-04-07T03:23:39;6.63;;;5.63;;
20336;SDS011;10326;53.660;10.200;2023-04-07T03:26:06;5.95;;;5.45;;
20336;SDS011;10326;53.660;10.200;2023-04-07T03:28:37;5.97;;;5.22;;
20336;SDS011;10326;53.660;10.200;2023-04-07T03:31:04;6.70;;;6.10;;
20336;SDS011;10326;53.660;10.200;2023-04-07T03:33:32;6.30;;;5.68;;
20336;SDS011;10326;53.660;10.200;2023-04-07T03:35:59;5.78;;;5.22;;
20336;SDS011;10326;53.660;10.200;2023-04-07T03:38:27;6.43;;;5.82;;
20336;SDS011;10326;53.660;10.200;2023-04-07T03:40:59;6.47;;;5.88;;
20336;SDS011;10326;53.660;10.200;2023-04-07T03:43:26;6.20;;;5.60;;
20336;SDS011;10326;53.660;10.200;2023-04-07T03:45:55;6.40;;;5.78;;
20336;SDS011;10326;53.660;10.200;2023-04-07T03:48:23;6.43;;;5.82;;
20336;SDS011;10326;53.660;10.200;2023-04-07T03:50:59;6.30;;;5.68;;
20336;SDS011;10326;53.660;10.200;2023-04-07T03:53:26;6.78;;;6.10;;
20336;SDS011;10326;53.660;10.200;2023-04-07T03:55:55;6.28;;;5.68;;
20336;SDS011;10326;53.660;10.200;2023-04-07T03:58:39;6.93;;;5.70;;
20336;SDS011;10326;53.660;10.200;2023-04-07T04:01:11;6.28;;;5.28;;
20336;SDS011;10326;53.660;10.200;2023-04-07T04:03:42;6.82;;;5.97;;
20336;SDS011;10326;53.660;10.200;2023-04-07T04:06:18;6.18;;;5.55;;
20336;SDS011;10326;53.660;10.200;2023-04-07T04:08:45;6.63;;;5.95;;
20336;SDS011;10326;53.660;10.200;2023-04-07T04:11:13;5.82;;;5.32;;
20336;SDS011;10326;53.660;10.200;2023-04-07T04:13:47;6.32;;;5.72;;
20336;SDS011;10326;53.660;10.200;2023-04-07T04:16:16;6.63;;;6.03;;
20336;SDS011;10326;53.660;10.200;2023-04-07T04:18:45;6.22;;;5.63;;
20336;SDS011;10326;53.660;10.200;2023-04-07T04:21:13;6.75;;;6.05;;
20336;SDS011;10326;53.660;10.200;2023-04-07T04:23:42;6.70;;;6.05;;
20336;SDS011;10326;53.660;10.200;2023-04-07T04:26:10;6.07;;;5.47;;
20336;SDS011;10326;53.660;10.200;2023-04-07T04:28:40;5.82;;;5.32;;
20336;SDS011;10326;53.660;10.200;2023-04-07T04:31:09;6.30;;;5.68;;
20336;SDS011;10326;53.660;10.200;2023-04-07T04:33:42;6.47;;;5.88;;
20336;SDS011;10326;53.660;10.200;2023-04-07T04:36:09;6.18;;;5.57;;
20336;SDS011;10326;53.660;10.200;2023-04-07T04:38:37;8.15;;;5.95;;
20336;SDS011;10326;53.660;10.200;2023-04-07T04:41:17;5.93;;;5.40;;
20336;SDS011;10326;53.660;10.200;2023-04-07T04:43:44;6.05;;;5.55;;
20336;SDS011;10326;53.660;10.200;2023-04-07T04:46:16;5.85;;;5.32;;
20336;SDS011;10326;53.660;10.200;2023-04-07T04:48:45;6.50;;;5.90;;
20336;SDS011;10326;53.660;10.200;2023-04-07T04:51:14;6.63;;;5.90;;
20336;SDS011;10326;53.660;10.200;2023-04-07T04:53:46;6.28;;;5.60;;
20336;SDS011;10326;53.660;10.200;2023-04-07T04:56:13;6.28;;;5.68;;
20336;SDS011;10326;53.660;10.200;2023-04-07T04:58:44;6.63;;;6.03;;
20336;SDS011;10326;53.660;10.200;2023-04-07T05:01:16;6.95;;;6.25;;
20336;SDS011;10326;53.660;10.200;2023-04-07T05:03:53;7.00;;;5.97;;
20336;SDS011;10326;53.660;10.200;2023-04-07T05:06:24;6.68;;;5.93;;
20336;SDS011;10326;53.660;10.200;2023-04-07T05:08:55;6.55;;;5.90;;
20336;SDS011;10326;53.660;10.200;2023-04-07T05:11:27;6.85;;;6.10;;
20336;SDS011;10326;53.660;10.200;2023-04-07T05:13:55;6.28;;;5.68;;
20336;SDS011;10326;53.660;10.200;2023-04-07T05:16:22;9.00;;;6.22;;
20336;SDS011;10326;53.660;10.200;2023-04-07T05:18:50;6.63;;;6.03;;
20336;SDS011;10326;53.660;10.200;2023-04-07T05:21:20;7.43;;;6.05;;
20336;SDS011;10326;53.660;10.200;2023-04-07T05:23:48;6.95;;;6.13;;
20336;SDS011;10326;53.660;10.200;2023-04-07T05:26:16;7.07;;;6.35;;
20336;SDS011;10326;53.660;10.200;2023-04-07T05:28:44;6.78;;;6.15;;
20336;SDS011;10326;53.660;10.200;2023-04-07T05:31:16;6.53;;;5.93;;
20336;SDS011;10326;53.660;10.200;2023-04-07T05:33:46;6.40;;;5.80;;
20336;SDS011;10326;53.660;10.200;2023-04-07T05:36:15;6.45;;;5.80;;
20336;SDS011;10326;53.660;10.200;2023-04-07T05:38:42;6.03;;;5.43;;
20336;SDS011;10326;53.660;10.200;2023-04-07T05:41:14;6.55;;;5.82;;
20336;SDS011;10326;53.660;10.200;2023-04-07T05:43:42;7.05;;;6.35;;
20336;SDS011;10326;53.660;10.200;2023-04-07T05:46:09;6.85;;;6.22;;
20336;SDS011;10326;53.660;10.200;2023-04-07T05:48:45;6.57;;;5.97;;
20336;SDS011;10326;53.660;10.200;2023-04-07T05:51:13;8.15;;;6.78;;
20336;SDS011;10326;53.660;10.200;2023-04-07T05:53:41;6.78;;;6.18;;
20336;SDS011;10326;53.660;10.200;2023-04-07T05:56:09;6.57;;;5.88;;
20336;SDS011;10326;53.660;10.200;2023-04-07T05:58:42;6.63;;;6.00;;
20336;SDS011;10326;53.660;10.200;2023-04-07T06:01:10;7.45;;;6.10;;
20336;SDS011;10326;53.660;10.200;2023-04-07T06:03:37;7.05;;;6.45;;
20336;SDS011;10326;53.660;10.200;2023-04-07T06:06:13;7.25;;;6.32;;
20336;SDS011;10326;53.660;10.200;2023-04-07T06:08:42;7.13;;;6.43;;
20336;SDS011;10326;53.660;10.200;2023-04-07T06:11:10;7.65;;;6.25;;
20336;SDS011;10326;53.660;10.200;2023-04-07T06:13:37;7.80;;;6.68;;
20336;SDS011;10326;53.660;10.200;2023-04-07T06:16:04;7.00;;;6.40;;
20336;SDS011;10326;53.660;10.200;2023-04-07T06:18:32;7.35;;;6.30;;
20336;SDS011;10326;53.660;10.200;2023-04-07T06:20:59;7.28;;;6.57;;
20336;SDS011;10326;53.660;10.200;2023-04-07T06:23:27;7.40;;;6.60;;
20336;SDS011;10326;53.660;10.200;2023-04-07T06:25:55;7.72;;;6.50;;
20336;SDS011;10326;53.660;10.200;2023-04-07T06:28:22;8.45;;;6.80;;
20336;SDS011;10326;53.660;10.200;2023-04-07T06:30:49;7.03;;;6.32;;
20336;SDS011;10326;53.660;10.200;2023-04-07T06:33:18;9.05;;;6.13;;
20336;SDS011;10326;53.660;10.200;2023-04-07T06:35:49;6.85;;;5.82;;
20336;SDS011;10326;53.660;10.200;2023-04-07T06:38:16;6.32;;;5.72;;
20336;SDS011;10326;53.660;10.200;2023-04-07T06:40:43;6.47;;;5.78;;
20336;SDS011;10326;53.660;10.200;2023-04-07T06:43:12;6.40;;;5.80;;
20336;SDS011;10326;53.660;10.200;2023-04-07T06:45:49;7.40;;;5.70;;
20336;SDS011;10326;53.660;10.200;2023-04-07T06:48:16;6.70;;;5.95;;
20336;SDS011;10326;53.660;10.200;2023-04-07T06:50:44;7.22;;;6.32;;
20336;SDS011;10326;53.660;10.200;2023-04-07T06:53:12;7.93;;;5.82;;
20336;SDS011;10326;53.660;10.200;2023-04-07T06:55:39;6.93;;;5.85;;
20336;SDS011;10326;53.660;10.200;2023-04-07T06:58:06;7.40;;;6.00;;
20336;SDS011;10326;53.660;10.200;2023-04-07T07:00:35;5.85;;;5.25;;
20336;SDS011;10326;53.660;10.200;2023-04-07T07:03:02;6.30;;;5.70;;
20336;SDS011;10326;53.660;10.200;2023-04-07T07:05:29;7.00;;;5.72;;
20336;SDS011;10326;53.660;10.200;2023-04-07T07:07:57;6.10;;;5.50;;
20336;SDS011;10326;53.660;10.200;2023-04-07T07:10:24;5.85;;;5.25;;
20336;SDS011;10326;53.660;10.200;2023-04-07T07:12:51;5.88;;;5.38;;
20336;SDS011;10326;53.660;10.200;2023-04-07T07:15:18;5.82;;;5.25;;
20336;SDS011;10326;53.660;10.200;2023-04-07T07:17:46;6.28;;;5.68;;
20336;SDS011;10326;53.660;10.200;2023-04-07T07:20:14;6.68;;;5.07;;
20336;SDS011;10326;53.660;10.200;2023-04-07T07:22:41;6.22;;;5.63;;
20336;SDS011;10326;53.660;10.200;2023-04-07T07:25:08;6.43;;;5.70;;
20336;SDS011;10326;53.660;10.200;2023-04-07T07:27:35;5.88;;;5.32;;
20336;SDS011;10326;53.660;10.200;2023-04-07T07:30:03;6.10;;;5.50;;
20336;SDS011;10326;53.660;10.200;2023-04-07T07:32:31;6.78;;;5.53;;
20336;SDS011;10326;53.660;10.200;2023-04-07T07:35:00;6.80;;;5.57;;
20336;SDS011;10326;53.660;10.200;2023-04-07T07:37:27;6.18;;;5.40;;
20336;SDS011;10326;53.660;10.200;2023-04-07T07:39:54;6.43;;;5.30;;
20336;SDS011;10326;53.660;10.200;2023-04-07T07:42:23;5.95;;;5.35;;
20336;SDS011;10326;53.660;10.200;2023-04-07T07:44:50;5.72;;;5.10;;
20336;SDS011;10326;53.660;10.200;2023-04-07T07:47:18;5.65;;;4.82;;
20336;SDS011;10326;53.660;10.200;2023-04-07T07:49:45;6.20;;;5.38;;
20336;SDS011;10326;53.660;10.200;2023-04-07T07:52:14;7.05;;;5.53;;
20336;SDS011;10326;53.660;10.200;2023-04-07T07:54:41;7.10;;;5.13;;
20336;SDS011;10326;53.660;10.200;2023-04-07T07:57:09;6.57;;;5.40;;
20336;SDS011;10326;53.660;10.200;2023-04-07T07:59:37;6.10;;;5.20;;
20336;SDS011;10326;53.660;10.200;2023-04-07T08:02:05;7.47;;;5.68;;
20336;SDS011;10326;53.660;10.200;2023-04-07T08:04:32;6.47;;;5.50;;
20336;SDS011;10326;53.660;10.200;2023-04-07T08:07:00;5.72;;;5.18;;
20336;SDS011;10326;53.660;10.200;2023-04-07T08:09:29;6.80;;;5.60;;
20336;SDS011;10326;53.660;10.200;2023-04-07T08:11:56;7.05;;;5.57;;
20336;SDS011;10326;53.660;10.200;2023-04-07T08:14:23;5.72;;;4.90;;
20336;SDS011;10326;53.660;10.200;2023-04-07T08:16:50;5.93;;;5.32;;
20336;SDS011;10326;53.660;10.200;2023-04-07T08:19:17;7.43;;;5.90;;
20336;SDS011;10326;53.660;10.200;2023-04-07T08:21:44;7.68;;;5.45;;
20336;SDS011;10326;53.660;10.200;2023-04-07T08:24:11;7.78;;;6.05;;
20336;SDS011;10326;53.660;10.200;2023-04-07T08:26:40;6.22;;;5.63;;
20336;SDS011;10326;53.660;10.200;2023-04-07T08:29:07;7.38;;;5.30;;
20336;SDS011;10326;53.660;10.200;2023-04-07T08:31:34;5.95;;;5.22;;
20336;SDS011;10326;53.660;10.200;2023-04-07T08:34:01;6.30;;;5.55;;
20336;SDS011;10326;53.660;10.200;2023-04-07T08:36:28;6.50;;;5.30;;
20336;SDS011;10326;53.660;10.200;2023-04-07T08:38:55;5.70;;;5.10;;
20336;SDS011;10326;53.660;10.200;2023-04-07T08:41:23;5.72;;;5.22;;
20336;SDS011;10326;53.660;10.200;2023-04-07T08:43:58;5.80;;;5.20;;
20336;SDS011;10326;53.660;10.200;2023-04-07T08:46:28;6.00;;;5.40;;
20336;SDS011;10326;53.660;10.200;2023-04-07T08:48:56;6.07;;;5.47;;
20336;SDS011;10326;53.660;10.200;2023-04-07T08:51:26;6.30;;;5.70;;
20336;SDS011;10326;53.660;10.200;2023-04-07T08:53:57;6.15;;;5.55;;
20336;SDS011;10326;53.660;10.200;2023-04-07T08:56:31;6.55;;;5.72;;
20336;SDS011;10326;53.660;10.200;2023-04-07T08:59:00;6.47;;;5.88;;
20336;SDS011;10326;53.660;10.200;2023-04-07T09:01:28;6.03;;;5.43;;
20336;SDS011;10326;53.660;10.200;2023-04-07T09:03:56;6.28;;;5.68;;
20336;SDS011;10326;53.660;10.200;2023-04-07T09:06:23;6.03;;;5.40;;
20336;SDS011;10326;53.660;10.200;2023-04-07T09:08:51;7.10;;;5.57;;
20336;SDS011;10326;53.660;10.200;2023-04-07T09:11:18;6.32;;;5.68;;
20336;SDS011;10326;53.660;10.200;2023-04-07T09:13:46;5.65;;;5.05;;
20336;SDS011;10326;53.660;10.200;2023-04-07T09:16:16;5.38;;;4.90;;
20336;SDS011;10326;53.660;10.200;2023-04-07T09:18:43;6.30;;;5.70;;
20336;SDS011;10326;53.660;10.200;2023-04-07T09:21:10;6.00;;;5.40;;
20336;SDS011;10326;53.660;10.200;2023-04-07T09:23:38;6.85;;;5.95;;
20336;SDS011;10326;53.660;10.200;2023-04-07T09:28:53;5.78;;;5.28;;
20336;SDS011;10326;53.660;10.200;2023-04-07T09:31:42;6.88;;;6.03;;
20336;SDS011;10326;53.660;10.200;2023-04-07T09:34:22;6.32;;;5.32;;
20336;SDS011;10326;53.660;10.200;2023-04-07T09:36:51;7.13;;;5.40;;
20336;SDS011;10326;53.660;10.200;2023-04-07T09:39:18;6.15;;;5.28;;
20336;SDS011;10326;53.660;10.200;2023-04-07T09:41:45;6.40;;;5.78;;
20336;SDS011;10326;53.660;10.200;2023-04-07T09:44:12;7.45;;;5.45;;
20336;SDS011;10326;53.660;10.200;2023-04-07T09:46:48;6.80;;;6.10;;
20336;SDS011;10326;53.660;10.200;2023-04-07T09:49:17;6.10;;;5.50;;
20336;SDS011;10326;53.660;10.200;2023-04-07T09:51:52;6.47;;;5.78;;
20336;SDS011;10326;53.660;10.200;2023-04-07T09:54:31;6.13;;;5.53;;
20336;SDS011;10326;53.660;10.200;2023-04-07T09:57:00;6.22;;;5.60;;
20336;SDS011;10326;53.660;10.200;2023-04-07T09:59:28;6.63;;;6.03;;
20336;SDS011;10326;53.660;10.200;2023-04-07T10:01:57;6.80;;;5.80;;
20336;SDS011;10326;53.660;10.200;2023-04-07T10:04:25;6.63;;;5.93;;
20336;SDS011;10326;53.660;10.200;2023-04-07T10:06:54;6.82;;;6.13;;
20336;SDS011;10326;53.660;10.200;2023-04-07T10:09:24;6.90;;;5.97;;
20336;SDS011;10326;53.660;10.200;2023-04-07T10:11:54;7.40;;;6.38;;
20336;SDS011;10326;53.660;10.200;2023-04-07T10:14:26;6.80;;;5.93;;
20336;SDS011;10326;53.660;10.200;2023-04-07T10:16:55;6.38;;;5.65;;
20336;SDS011;10326;53.660;10.200;2023-04-07T10:19:25;6.90;;;6.20;;
20336;SDS011;10326;53.660;10.200;2023-04-07T10:21:58;7.25;;;6.10;;
20336;SDS011;10326;53.660;10.200;2023-04-07T10:24:31;6.53;;;5.40;;
20336;SDS011;10326;53.660;10.200;2023-04-07T10:27:10;6.22;;;5.72;;
20336;SDS011;10326;53.660;10.200;2023-04-07T10:29:47;6.07;;;5.53;;
20336;SDS011;10326;53.660;10.200;2023-04-07T10:32:18;5.45;;;4.95;;
20336;SDS011;10326;53.660;10.200;2023-04-07T10:34:54;6.28;;;5.65;;
20336;SDS011;10326;53.660;10.200;2023-04-07T10:37:23;5.82;;;5.22;;
20336;SDS011;10326;53.660;10.200;2023-04-07T10:42:52;7.18;;;6.22;;
20336;SDS011;10326;53.660;10.200;2023-04-07T10:48:25;5.97;;;5.38;;
20336;SDS011;10326;53.660;10.200;2023-04-07T10:59:39;5.65;;;4.70;;
20336;SDS011;10326;53.660;10.200;2023-04-07T11:02:33;6.68;;;4.85;;
20336;SDS011;10326;53.660;10.200;2023-04-07T11:05:02;5.88;;;4.78;;
20336;SDS011;10326;53.660;10.200;2023-04-07T11:07:42;5.82;;;4.90;;
20336;SDS011;10326;53.660;10.200;2023-04-07T11:10:13;5.13;;;4.20;;
20336;SDS011;10326;53.660;10.200;2023-04-07T11:12:41;5.35;;;4.60;;
20336;SDS011;10326;53.660;10.200;2023-04-07T11:15:16;4.80;;;4.30;;
20336;SDS011;10326;53.660;10.200;2023-04-07T11:17:45;5.45;;;4.53;;
20336;SDS011;10326;53.660;10.200;2023-04-07T11:20:13;4.25;;;3.90;;
20336;SDS011;10326;53.660;10.200;2023-04-07T11:22:40;4.80;;;4.30;;
20336;SDS011;10326;53.660;10.200;2023-04-07T11:25:20;5.60;;;4.28;;
20336;SDS011;10326;53.660;10.200;2023-04-07T11:27:47;5.35;;;4.50;;
20336;SDS011;10326;53.660;10.200;2023-04-07T11:30:15;5.30;;;4.80;;
20336;SDS011;10326;53.660;10.200;2023-04-07T11:32:46;5.22;;;4.72;;
20336;SDS011;10326;53.660;10.200;2023-04-07T11:35:17;5.63;;;4.38;;
20336;SDS011;10326;53.660;10.200;2023-04-07T11:37:45;5.13;;;3.83;;
20336;SDS011;10326;53.660;10.200;2023-04-07T11:40:12;5.43;;;4.10;;
20336;SDS011;10326;53.660;10.200;2023-04-07T11:42:58;4.75;;;3.72;;
20336;SDS011;10326;53.660;10.200;2023-04-07T11:45:26;3.15;;;2.90;;
20336;SDS011;10326;53.660;10.200;2023-04-07T11:47:53;3.65;;;3.28;;
20336;SDS011;10326;53.660;10.200;2023-04-07T11:53:07;3.75;;;3.28;;
20336;SDS011;10326;53.660;10.200;2023-04-07T11:55:35;4.00;;;3.50;;
20336;SDS011;10326;53.660;10.200;2023-04-07T11:58:05;4.32;;;3.55;;
20336;SDS011;10326;53.660;10.200;2023-04-07T12:00:34;3.85;;;3.05;;
20336;SDS011;10326;53.660;10.200;2023-04-07T12:03:09;3.70;;;3.22;;
20336;SDS011;10326;53.660;10.200;2023-04-07T12:05:43;3.60;;;3.30;;
20336;SDS011;10326;53.660;10.200;2023-04-07T12:08:11;3.05;;;2.70;;
20336;SDS011;10326;53.660;10.200;2023-04-07T12:10:39;2.83;;;2.35;;
20336;SDS011;10326;53.660;10.200;2023-04-07T12:13:06;3.17;;;2.78;;
20336;SDS011;10326;53.660;10.200;2023-04-07T12:15:34;3.08;;;2.78;;
20336;SDS011;10326;53.660;10.200;2023-04-07T12:18:01;2.97;;;2.42;;
20336;SDS011;10326;53.660;10.200;2023-04-07T12:20:29;2.40;;;2.20;;
20336;SDS011;10326;53.660;10.200;2023-04-07T12:22:57;3.28;;;2.60;;
20336;SDS011;10326;53.660;10.200;2023-04-07T12:25:25;2.90;;;2.40;;
20336;SDS011;10326;53.660;10.200;2023-04-07T12:27:52;2.42;;;2.22;;
20336;SDS011;10326;53.660;10.200;2023-04-07T12:30:20;2.25;;;2.00;;
20336;SDS011;10326;53.660;10.200;2023-04-07T12:32:47;2.70;;;2.28;;
20336;SDS011;10326;53.660;10.200;2023-04-07T12:35:14;3.05;;;2.40;;
20336;SDS011;10326;53.660;10.200;2023-04-07T12:37:41;2.30;;;2.10;;
20336;SDS011;10326;53.660;10.200;2023-04-07T12:40:10;3.03;;;2.10;;
20336;SDS011;10326;53.660;10.200;2023-04-07T12:42:37;3.13;;;2.17;;
20336;SDS011;10326;53.660;10.200;2023-04-07T12:45:05;3.20;;;1.85;;
20336;SDS011;10326;53.660;10.200;2023-04-07T12:47:33;2.00;;;1.80;;
20336;SDS011;10326;53.660;10.200;2023-04-07T12:50:00;2.08;;;1.88;;
20336;SDS011;10326;53.660;10.200;2023-04-07T12:52:27;2.20;;;2.00;;
20336;SDS011;10326;53.660;10.200;2023-04-07T12:54:54;3.65;;;2.13;;
20336;SDS011;10326;53.660;10.200;2023-04-07T12:57:23;2.17;;;1.90;;
20336;SDS011;10326;53.660;10.200;2023-04-07T12:59:51;2.60;;;2.40;;
20336;SDS011;10326;53.660;10.200;2023-04-07T13:02:18;3.10;;;2.20;;
20336;SDS011;10326;53.660;10.200;2023-04-07T13:04:45;3.00;;;2.20;;
20336;SDS011;10326;53.660;10.200;2023-04-07T13:07:12;2.38;;;2.17;;
20336;SDS011;10326;53.660;10.200;2023-04-07T13:09:40;2.53;;;1.60;;
20336;SDS011;10326;53.660;10.200;2023-04-07T13:12:08;2.75;;;2.53;;
20336;SDS011;10326;53.660;10.200;2023-04-07T13:14:38;3.00;;;2.30;;
20336;SDS011;10326;53.660;10.200;2023-04-07T13:17:06;2.40;;;2.25;;
20336;SDS011;10326;53.660;10.200;2023-04-07T13:19:34;4.07;;;2.85;;
20336;SDS011;10326;53.660;10.200;2023-04-07T13:22:01;2.50;;;2.30;;
20336;SDS011;10326;53.660;10.200;2023-04-07T13:24:28;2.88;;;2.58;;
20336;SDS011;10326;53.660;10.200;2023-04-07T13:26:55;2.58;;;2.38;;
20336;SDS011;10326;53.660;10.200;2023-04-07T13:29:23;3.10;;;2.60;;
20336;SDS011;10326;53.660;10.200;2023-04-07T13:31:52;2.97;;;2.38;;
20336;SDS011;10326;53.660;10.200;2023-04-07T13:34:19;2.58;;;2.25;;
20336;SDS011;10326;53.660;10.200;2023-04-07T13:36:46;2.67;;;2.30;;
20336;SDS011;10326;53.660;10.200;2023-04-07T13:39:13;2.95;;;2.65;;
20336;SDS011;10326;53.660;10.200;2023-04-07T13:41:40;2.70;;;2.50;;
20336;SDS011;10326;53.660;10.200;2023-04-07T13:44:07;4.18;;;2.95;;
20336;SDS011;10326;53.660;10.200;2023-04-07T13:46:34;4.00;;;2.70;;
20336;SDS011;10326;53.660;10.200;2023-04-07T13:49:03;3.75;;;2.97;;
20336;SDS011;10326;53.660;10.200;2023-04-07T13:51:30;3.47;;;2.75;;
20336;SDS011;10326;53.660;10.200;2023-04-07T13:53:58;3.17;;;2.53;;
20336;SDS011;10326;53.660;10.200;2023-04-07T13:56:25;3.50;;;2.90;;
20336;SDS011;10326;53.660;10.200;2023-04-07T13:58:52;3.65;;;3.05;;
20336;SDS011;10326;53.660;10.200;2023-04-07T14:01:19;4.30;;;2.88;;
20336;SDS011;10326;53.660;10.200;2023-04-07T14:03:46;2.63;;;2.40;;
20336;SDS011;10326;53.660;10.200;2023-04-07T14:06:15;3.30;;;3.00;;
20336;SDS011;10326;53.660;10.200;2023-04-07T14:08:42;3.83;;;2.60;;
20336;SDS011;10326;53.660;10.200;2023-04-07T14:11:09;3.70;;;3.35;;
20336;SDS011;10326;53.660;10.200;2023-04-07T14:13:36;3.63;;;2.92;;
20336;SDS011;10326;53.660;10.200;2023-04-07T14:16:04;3.38;;;2.58;;
20336;SDS011;10326;53.660;10.200;2023-04-07T14:18:33;3.30;;;3.00;;
20336;SDS011;10326;53.660;10.200;2023-04-07T14:21:01;4.30;;;2.90;;
20336;SDS011;10326;53.660;10.200;2023-04-07T14:23:30;4.28;;;3.10;;
20336;SDS011;10326;53.660;10.200;2023-04-07T14:25:57;3.00;;;2.70;;
20336;SDS011;10326;53.660;10.200;2023-04-07T14:28:25;4.35;;;3.30;;
20336;SDS011;10326;53.660;10.200;2023-04-07T14:30:53;3.60;;;3.00;;
20336;SDS011;10326;53.660;10.200;2023-04-07T14:33:20;4.28;;;3.10;;
20336;SDS011;10326;53.660;10.200;2023-04-07T14:35:48;3.17;;;2.72;;
20336;SDS011;10326;53.660;10.200;2023-04-07T14:38:15;4.55;;;2.90;;
20336;SDS011;10326;53.660;10.200;2023-04-07T14:40:44;5.35;;;3.22;;
20336;SDS011;10326;53.660;10.200;2023-04-07T14:43:11;3.55;;;3.05;;
20336;SDS011;10326;53.660;10.200;2023-04-07T14:45:38;4.85;;;3.22;;
20336;SDS011;10326;53.660;10.200;2023-04-07T14:48:05;4.13;;;3.38;;
20336;SDS011;10326;53.660;10.200;2023-04-07T14:50:32;3.30;;;3.00;;
20336;SDS011;10326;53.660;10.200;2023-04-07T14:52:59;3.40;;;3.10;;
20336;SDS011;10326;53.660;10.200;2023-04-07T14:55:27;3.25;;;2.78;;
20336;SDS011;10326;53.660;10.200;2023-04-07T14:57:56;5.68;;;3.30;;
20336;SDS011;10326;53.660;10.200;2023-04-07T15:00:23;5.35;;;3.38;;
20336;SDS011;10326;53.660;10.200;2023-04-07T15:02:53;3.40;;;3.10;;
20336;SDS011;10326;53.660;10.200;2023-04-07T15:05:20;3.72;;;3.30;;
20336;SDS011;10326;53.660;10.200;2023-04-07T15:07:47;3.40;;;3.10;;
20336;SDS011;10326;53.660;10.200;2023-04-07T15:10:16;3.70;;;3.40;;
20336;SDS011;10326;53.660;10.200;2023-04-07T15:12:44;3.45;;;3.15;;